Time;durP1;ratioP1;P1;durP2;ratioP2;P2;SDS_P1;SDS_P2;PMS_P1;PMS_P2;Temp;Humidity;BMP_temperature;BMP_pressure;BME280_temperature;BME280_humidity;BME280_pressure;Samples;Min_cycle;Max_cycle;Signal;HPM_P1;HPM_P2
2023/06/19 00:00:56;;;;;;;11.77;10.13;;;435.50;2355.20;;;;;;5072428;28;20025;-81
2023/06/19 00:03:22;;;;;;;14.90;10.48;;;435.60;2355.20;;;;;;5055642;28;20029;-78
2023/06/19 00:05:48;;;;;;;12.88;10.88;;;435.50;2355.20;;;;;;5055311;28;20503;-82
2023/06/19 00:08:13;;;;;;;14.43;11.18;;;435.50;2355.20;;;;;;5055678;28;20475;-81
2023/06/19 00:10:39;;;;;;;12.30;10.65;;;435.40;2355.20;;;;;;5055456;28;20465;-83
2023/06/19 00:13:05;;;;;;;13.82;10.52;;;435.40;2355.20;;;;;;5055313;28;20067;-79
2023/06/19 00:15:31;;;;;;;12.15;10.93;;;435.30;2355.20;;;;;;5042060;28;20037;-87
2023/06/19 00:17:57;;;;;;;15.30;11.38;;;435.40;2355.20;;;;;;5035317;28;20426;-82
2023/06/19 00:20:24;;;;;;;14.68;10.98;;;435.40;2355.20;;;;;;5035549;28;20033;-81
2023/06/19 00:22:51;;;;;;;11.85;10.60;;;435.30;2355.20;;;;;;5035435;28;20469;-83
2023/06/19 00:25:19;;;;;;;12.90;11.38;;;435.40;2355.20;;;;;;5035481;28;20136;-81
2023/06/19 00:27:46;;;;;;;12.05;10.85;;;435.40;2355.20;;;;;;5036132;28;20034;-82
2023/06/19 00:30:12;;;;;;;11.73;10.10;;;435.30;2355.20;;;;;;5035277;28;20030;-85
2023/06/19 00:32:46;;;;;;;11.43;10.23;;;435.40;2355.20;;;;;;5034992;28;20028;-84
2023/06/19 00:35:14;;;;;;;11.27;10.05;;;435.40;2355.20;;;;;;5036529;28;20032;-84
2023/06/19 00:37:39;;;;;;;12.90;10.15;;;435.40;2355.20;;;;;;5035255;28;20065;-81
2023/06/19 00:40:09;;;;;;;14.25;11.68;;;435.30;2355.20;;;;;;5035001;28;20068;-83
2023/06/19 00:42:35;;;;;;;11.88;10.57;;;435.30;2355.20;;;;;;5035097;28;20032;-83
2023/06/19 00:45:01;;;;;;;12.15;10.00;;;435.30;2355.20;;;;;;5034992;28;20021;-83
2023/06/19 00:47:27;;;;;;;13.63;10.30;;;435.20;2355.20;;;;;;5034823;28;20044;-83
2023/06/19 00:49:52;;;;;;;12.50;9.90;;;435.20;2355.20;;;;;;5035186;28;20063;-83
2023/06/19 00:52:18;;;;;;;13.90;10.90;;;435.20;2355.20;;;;;;5034923;28;20026;-82
2023/06/19 00:54:45;;;;;;;11.57;10.38;;;410.50;2355.20;;;;;;5034900;28;20021;-83
2023/06/19 00:57:10;;;;;;;13.82;10.93;;;410.50;2355.20;;;;;;5034894;28;20386;-82
2023/06/19 00:59:36;;;;;;;12.18;10.98;;;410.50;2355.20;;;;;;5034910;28;20473;-85
2023/06/19 01:02:02;;;;;;;16.83;11.85;;;410.50;2355.20;;;;;;5034807;28;20029;-81
2023/06/19 01:04:28;;;;;;;17.63;11.02;;;410.30;2355.20;;;;;;5034579;28;20484;-82
2023/06/19 01:07:02;;;;;;;12.88;10.55;;;410.30;2355.20;;;;;;5034119;28;20132;-84
2023/06/19 01:09:48;;;;;;;13.10;11.20;;;410.30;2355.20;;;;;;5034780;28;20029;-81
2023/06/19 01:12:20;;;;;;;15.02;11.57;;;410.30;2355.20;;;;;;5034454;28;20128;-82
2023/06/19 01:15:02;;;;;;;12.60;9.80;;;410.40;2355.20;;;;;;5034155;28;20414;-81
2023/06/19 01:17:29;;;;;;;11.37;10.10;;;410.50;2355.20;;;;;;5035465;28;20121;-83
2023/06/19 01:19:59;;;;;;;12.88;11.57;;;410.40;2355.20;;;;;;5035824;28;20032;-84
2023/06/19 01:22:29;;;;;;;14.73;11.93;;;410.40;2355.20;;;;;;5034055;28;20470;-82
2023/06/19 01:24:55;;;;;;;16.05;10.82;;;410.50;2355.20;;;;;;5034538;28;20032;-83
2023/06/19 01:27:25;;;;;;;12.48;10.48;;;410.50;2355.20;;;;;;5034387;28;20029;-82
2023/06/19 01:29:53;;;;;;;13.63;10.57;;;410.50;2355.20;;;;;;5034450;28;20056;-83
2023/06/19 01:32:31;;;;;;;11.82;10.15;;;410.10;2355.20;;;;;;5037804;28;20018;-82
2023/06/19 01:34:58;;;;;;;12.63;11.38;;;410.30;2355.20;;;;;;5035895;28;20021;-81
2023/06/19 01:37:28;;;;;;;14.45;11.45;;;410.30;2355.20;;;;;;5033923;28;20537;-82
2023/06/19 01:39:56;;;;;;;14.40;11.57;;;410.30;2355.20;;;;;;5034321;28;20388;-83
2023/06/19 01:42:22;;;;;;;13.13;11.73;;;410.30;2355.20;;;;;;5033770;28;20037;-82
2023/06/19 01:44:50;;;;;;;13.63;10.80;;;410.30;2355.20;;;;;;5034196;28;20049;-84
2023/06/19 01:47:19;;;;;;;12.68;11.05;;;410.30;2355.20;;;;;;5033997;28;20037;-80
2023/06/19 01:49:46;;;;;;;12.15;10.95;;;410.30;2355.20;;;;;;5033668;28;20102;-83
2023/06/19 01:52:13;;;;;;;14.13;10.85;;;410.30;2355.20;;;;;;5033689;28;20022;-83
2023/06/19 01:54:39;;;;;;;14.10;11.10;;;410.30;2355.20;;;;;;5035049;28;20021;-82
2023/06/19 01:57:05;;;;;;;16.40;11.63;;;410.30;2355.20;;;;;;5034541;28;20440;-85
2023/06/19 01:59:31;;;;;;;14.35;11.25;;;410.00;2355.20;;;;;;5033731;28;20097;-82
2023/06/19 02:01:57;;;;;;;12.10;10.55;;;410.20;2355.20;;;;;;5033631;28;20473;-83
2023/06/19 02:04:23;;;;;;;13.05;11.02;;;410.30;2355.20;;;;;;5046828;28;20194;-82
2023/06/19 02:06:48;;;;;;;17.75;11.35;;;410.30;2355.20;;;;;;5053022;28;20485;-82
2023/06/19 02:09:14;;;;;;;13.30;11.15;;;410.30;2355.20;;;;;;5053406;28;20029;-81
2023/06/19 02:11:40;;;;;;;12.98;11.60;;;409.90;2355.20;;;;;;5053081;28;20419;-84
2023/06/19 02:14:06;;;;;;;12.35;11.05;;;410.00;2355.20;;;;;;5053180;28;20029;-82
2023/06/19 02:16:32;;;;;;;15.13;13.05;;;410.10;2355.20;;;;;;5053054;28;20052;-82
2023/06/19 02:18:57;;;;;;;15.35;11.68;;;410.20;2355.20;;;;;;5053238;28;20457;-82
2023/06/19 02:21:23;;;;;;;13.90;12.07;;;410.20;2355.20;;;;;;5053143;28;20416;-82
2023/06/19 02:23:49;;;;;;;13.02;11.73;;;410.10;2355.20;;;;;;5052829;28;20052;-83
2023/06/19 02:26:15;;;;;;;13.23;11.05;;;410.10;2355.20;;;;;;5052807;28;20044;-80
2023/06/19 02:28:41;;;;;;;13.57;11.75;;;410.10;2355.20;;;;;;5053107;28;20029;-83
2023/06/19 02:31:07;;;;;;;14.68;11.32;;;410.10;2355.20;;;;;;5053995;28;20112;-82
2023/06/19 02:33:33;;;;;;;11.82;10.63;;;410.20;2355.20;;;;;;5050928;28;20021;-80
2023/06/19 02:35:58;;;;;;;12.50;11.20;;;410.10;2355.20;;;;;;5052794;28;20116;-83
2023/06/19 02:38:25;;;;;;;13.60;12.30;;;410.10;2355.20;;;;;;5052776;28;20036;-81
2023/06/19 02:40:51;;;;;;;21.20;12.00;;;410.20;2355.20;;;;;;5052968;28;20025;-84
2023/06/19 02:43:17;;;;;;;12.15;10.02;;;410.00;2355.20;;;;;;5052731;28;20047;-82
2023/06/19 02:45:43;;;;;;;14.77;11.68;;;410.00;2355.20;;;;;;5052411;28;20025;-82
2023/06/19 02:48:10;;;;;;;13.27;11.02;;;410.00;2355.20;;;;;;5052628;28;20483;-82
2023/06/19 02:50:35;;;;;;;13.40;11.57;;;410.10;2355.20;;;;;;5052760;28;20030;-82
2023/06/19 02:53:01;;;;;;;15.95;12.27;;;410.10;2355.20;;;;;;5052314;28;20032;-84
2023/06/19 02:55:27;;;;;;;14.13;12.07;;;410.10;2355.20;;;;;;5051877;28;20021;-83
2023/06/19 02:57:53;;;;;;;17.80;11.65;;;409.90;2355.20;;;;;;5052528;28;20036;-83
2023/06/19 03:00:19;;;;;;;13.30;11.00;;;409.90;2355.20;;;;;;5052305;28;20031;-83
2023/06/19 03:02:48;;;;;;;16.13;11.80;;;409.80;2355.20;;;;;;5052383;28;20068;-82
2023/06/19 03:05:16;;;;;;;13.57;11.85;;;409.90;2355.20;;;;;;5052041;28;20029;-81
2023/06/19 03:07:42;;;;;;;15.43;11.93;;;410.00;2355.20;;;;;;5052196;28;20389;-83
2023/06/19 03:10:08;;;;;;;12.98;11.68;;;410.00;2355.20;;;;;;5052399;28;20025;-83
2023/06/19 03:12:34;;;;;;;12.88;11.38;;;409.90;2355.20;;;;;;5052130;28;20028;-82
2023/06/19 03:15:00;;;;;;;14.88;11.55;;;409.80;2355.20;;;;;;5053641;28;20025;-84
2023/06/19 03:17:26;;;;;;;15.27;10.75;;;409.70;2355.20;;;;;;5053333;28;20033;-81
2023/06/19 03:19:51;;;;;;;14.65;11.77;;;384.90;2329.60;;;;;;5052177;28;20453;-82
2023/06/19 03:22:19;;;;;;;14.90;10.85;;;409.70;2355.20;;;;;;5052376;28;20032;-81
2023/06/19 03:24:45;;;;;;;14.77;11.45;;;409.60;2355.20;;;;;;5052335;28;20480;-83
2023/06/19 03:27:10;;;;;;;13.27;11.85;;;409.70;2355.20;;;;;;5053498;28;20037;-81
2023/06/19 03:29:36;;;;;;;14.70;11.73;;;409.70;2355.20;;;;;;5057671;28;20028;-83
2023/06/19 03:32:02;;;;;;;13.73;12.23;;;409.60;2355.20;;;;;;5056363;28;20437;-83
2023/06/19 03:34:28;;;;;;;18.90;12.10;;;384.60;2329.60;;;;;;5055756;28;20100;-82
2023/06/19 03:36:54;;;;;;;16.58;12.77;;;384.90;2329.60;;;;;;5056149;28;20032;-83
2023/06/19 03:39:20;;;;;;;15.93;13.02;;;409.60;2355.20;;;;;;5057538;28;20103;-81
2023/06/19 03:41:45;;;;;;;17.50;12.70;;;384.90;2329.60;;;;;;5055917;28;20075;-81
2023/06/19 03:44:11;;;;;;;12.60;11.25;;;409.70;2355.20;;;;;;5057116;28;20032;-81
2023/06/19 03:46:37;;;;;;;14.05;11.15;;;409.70;2355.20;;;;;;5056163;28;20100;-82
2023/06/19 03:49:04;;;;;;;13.50;11.88;;;409.80;2355.20;;;;;;5055764;28;20445;-85
2023/06/19 03:51:30;;;;;;;13.57;12.18;;;409.90;2355.20;;;;;;5057172;28;20025;-81
2023/06/19 03:53:56;;;;;;;13.85;12.35;;;409.70;2355.20;;;;;;5056083;28;20021;-82
2023/06/19 03:56:22;;;;;;;14.88;11.77;;;409.70;2355.20;;;;;;5055355;28;20519;-83
2023/06/19 03:58:48;;;;;;;15.82;11.43;;;409.70;2355.20;;;;;;5055833;28;20033;-83
2023/06/19 04:01:14;;;;;;;16.52;12.02;;;409.80;2355.20;;;;;;5056876;28;20058;-82
2023/06/19 04:03:39;;;;;;;15.27;11.60;;;409.80;2355.20;;;;;;5056539;28;20021;-82
2023/06/19 04:06:05;;;;;;;17.38;12.02;;;409.70;2355.20;;;;;;5055240;28;20370;-83
2023/06/19 04:08:31;;;;;;;12.55;11.25;;;409.90;2355.20;;;;;;5055459;28;20029;-84
2023/06/19 04:10:57;;;;;;;14.20;11.38;;;409.90;2355.20;;;;;;5055619;28;20063;-84
2023/06/19 04:13:22;;;;;;;14.20;11.02;;;409.90;2355.20;;;;;;5056576;28;20036;-81
2023/06/19 04:15:48;;;;;;;16.80;11.88;;;410.00;2355.20;;;;;;5055250;28;20044;-81
2023/06/19 04:18:14;;;;;;;14.05;11.63;;;410.00;2355.20;;;;;;5055419;28;20115;-82
2023/06/19 04:20:40;;;;;;;14.52;11.50;;;410.00;2355.20;;;;;;5055489;28;20063;-82
2023/06/19 04:23:06;;;;;;;16.50;10.50;;;410.00;2355.20;;;;;;5056354;28;20029;-80
2023/06/19 04:25:31;;;;;;;14.68;10.23;;;410.00;2355.20;;;;;;5055391;28;20032;-82
2023/06/19 04:27:57;;;;;;;33.03;11.60;;;410.00;2355.20;;;;;;5055254;28;20040;-81
2023/06/19 04:30:23;;;;;;;12.85;11.40;;;409.90;2355.20;;;;;;5055157;28;20512;-81
2023/06/19 04:32:49;;;;;;;13.27;11.43;;;410.00;2355.20;;;;;;5056348;28;20059;-82
2023/06/19 04:35:15;;;;;;;15.23;11.18;;;410.00;2355.20;;;;;;5055136;28;20032;-81
2023/06/19 04:37:40;;;;;;;11.73;10.52;;;410.00;2355.20;;;;;;5054943;28;20461;-83
2023/06/19 04:40:10;;;;;;;11.68;10.48;;;410.20;2355.20;;;;;;5054141;28;20119;-83
2023/06/19 04:42:38;;;;;;;13.93;10.95;;;410.20;2355.20;;;;;;5055993;28;20031;-82
2023/06/19 04:45:07;;;;;;;14.68;10.70;;;410.20;2355.20;;;;;;5055057;28;20036;-82
2023/06/19 04:47:33;;;;;;;12.50;11.10;;;410.30;2355.20;;;;;;5054808;28;20041;-82
2023/06/19 04:49:59;;;;;;;24.33;12.27;;;410.30;2355.20;;;;;;5054960;28;20021;-82
2023/06/19 04:52:25;;;;;;;12.18;10.68;;;410.30;2355.20;;;;;;5054704;28;20032;-82
2023/06/19 04:54:51;;;;;;;17.05;11.73;;;410.30;2355.20;;;;;;5054910;28;20044;-81
2023/06/19 04:57:17;;;;;;;16.05;11.35;;;410.30;2355.20;;;;;;5054643;28;20392;-84
2023/06/19 04:59:46;;;;;;;12.90;11.32;;;410.30;2355.20;;;;;;5054595;28;20119;-83
2023/06/19 05:02:12;;;;;;;20.45;11.75;;;410.30;2355.20;;;;;;5054755;28;20113;-81
2023/06/19 05:04:38;;;;;;;14.68;10.88;;;410.40;2355.20;;;;;;5054475;28;20063;-80
2023/06/19 05:07:04;;;;;;;12.60;10.93;;;410.50;2355.20;;;;;;5054192;28;20139;-81
2023/06/19 05:09:30;;;;;;;13.98;10.40;;;410.50;2355.20;;;;;;5054311;28;20029;-80
2023/06/19 05:11:57;;;;;;;17.48;11.32;;;435.20;2355.20;;;;;;5055252;28;20032;-81
2023/06/19 05:14:23;;;;;;;14.43;10.48;;;435.30;2355.20;;;;;;5058328;28;20095;-79
2023/06/19 05:16:49;;;;;;;15.40;11.27;;;435.20;2355.20;;;;;;5056702;28;20033;-82
2023/06/19 05:19:14;;;;;;;12.05;10.40;;;435.30;2355.20;;;;;;5054057;28;20021;-81
2023/06/19 05:21:40;;;;;;;11.98;10.35;;;435.30;2355.20;;;;;;5054332;28;20503;-80
2023/06/19 05:24:06;;;;;;;12.68;10.80;;;435.40;2355.20;;;;;;5055541;28;20472;-81
2023/06/19 05:26:32;;;;;;;14.38;11.18;;;435.50;2355.20;;;;;;5053839;28;20084;-82
2023/06/19 05:28:57;;;;;;;13.15;10.40;;;435.50;2355.20;;;;;;5055046;28;20028;-81
2023/06/19 05:31:23;;;;;;;12.55;10.82;;;435.60;2355.20;;;;;;5054023;28;20033;-79
2023/06/19 05:33:49;;;;;;;18.80;10.57;;;435.60;2355.20;;;;;;5054827;28;20056;-83
2023/06/19 05:36:15;;;;;;;12.93;11.02;;;435.80;2355.20;;;;;;5055257;28;20037;-82
2023/06/19 05:38:41;;;;;;;16.90;11.10;;;435.80;2355.20;;;;;;5053880;28;20021;-82
2023/06/19 05:41:06;;;;;;;12.93;10.88;;;435.90;2355.20;;;;;;5053425;28;20029;-83
2023/06/19 05:43:32;;;;;;;13.75;9.95;;;436.00;2355.20;;;;;;5053856;28;20025;-83
2023/06/19 05:46:02;;;;;;;13.90;10.43;;;436.10;2355.20;;;;;;5070491;28;20025;-80
2023/06/19 05:48:28;;;;;;;12.45;9.05;;;436.10;2355.20;;;;;;5053469;28;20029;-83
2023/06/19 05:50:53;;;;;;;12.50;10.20;;;460.80;2380.80;;;;;;5070418;28;20029;-80
2023/06/19 05:53:19;;;;;;;11.45;10.00;;;460.90;2380.80;;;;;;5053574;28;20028;-79
2023/06/19 05:55:45;;;;;;;13.43;9.73;;;436.00;2355.20;;;;;;5053818;28;20029;-81
2023/06/19 05:58:11;;;;;;;14.68;9.90;;;460.90;2380.80;;;;;;5070531;28;20025;-82
2023/06/19 06:00:37;;;;;;;14.43;9.88;;;461.00;2380.80;;;;;;5070063;28;20136;-81
2023/06/19 06:03:02;;;;;;;12.65;10.00;;;461.10;2380.80;;;;;;5070333;28;20029;-80
2023/06/19 06:05:28;;;;;;;11.60;9.27;;;461.20;2380.80;;;;;;5053236;28;20056;-82
2023/06/19 06:07:55;;;;;;;13.13;10.15;;;461.40;2380.80;;;;;;5069871;28;20033;-80
2023/06/19 06:10:22;;;;;;;15.73;10.15;;;460.90;2380.80;;;;;;5053476;28;20033;-80
2023/06/19 06:12:49;;;;;;;14.23;10.20;;;461.40;2380.80;;;;;;5053258;28;20035;-79
2023/06/19 06:15:15;;;;;;;11.25;10.05;;;461.60;2380.80;;;;;;5053015;28;20021;-80
2023/06/19 06:17:41;;;;;;;14.00;10.52;;;461.70;2380.80;;;;;;5053244;28;20035;-83
2023/06/19 06:20:13;;;;;;;10.63;9.52;;;461.70;2380.80;;;;;;5052976;28;20108;-80
2023/06/19 06:22:42;;;;;;;12.30;9.48;;;461.70;2380.80;;;;;;5069697;28;20035;-80
2023/06/19 06:25:12;;;;;;;13.77;9.40;;;486.40;2380.80;;;;;;5069806;28;20029;-81
2023/06/19 06:27:38;;;;;;;12.18;9.52;;;486.70;2380.80;;;;;;5069723;28;20042;-81
2023/06/19 06:30:04;;;;;;;16.02;9.50;;;486.80;2380.80;;;;;;5069527;28;20159;-80
2023/06/19 06:32:31;;;;;;;12.35;9.65;;;486.90;2380.80;;;;;;5069246;28;20032;-81
2023/06/19 06:34:57;;;;;;;13.07;9.57;;;487.10;2380.80;;;;;;5053933;28;20032;-82
2023/06/19 06:37:23;;;;;;;11.32;8.85;;;487.20;2380.80;;;;;;5069603;28;20473;-81
2023/06/19 06:39:49;;;;;;;12.38;8.85;;;487.30;2380.80;;;;;;5069706;28;20028;-80
2023/06/19 06:42:15;;;;;;;14.35;9.25;;;487.30;2380.80;;;;;;5069533;28;20044;-80
2023/06/19 06:44:41;;;;;;;15.02;8.85;;;487.30;2380.80;;;;;;5069071;28;20025;-82
2023/06/19 06:47:07;;;;;;;11.63;9.15;;;512.00;2380.80;;;;;;5069254;28;20391;-80
2023/06/19 06:49:33;;;;;;;11.48;9.38;;;512.20;2380.80;;;;;;5069066;28;20163;-81
2023/06/19 06:51:58;;;;;;;12.68;9.43;;;512.20;2380.80;;;;;;5053934;28;20388;-82
2023/06/19 06:54:24;;;;;;;9.32;8.43;;;512.20;2380.80;;;;;;5067452;28;20028;-81
2023/06/19 06:56:52;;;;;;;11.05;8.25;;;512.50;2380.80;;;;;;5033877;28;20035;-81
2023/06/19 06:59:18;;;;;;;13.95;8.70;;;512.70;2380.80;;;;;;5032209;28;20140;-80
2023/06/19 07:01:44;;;;;;;12.82;8.85;;;512.70;2380.80;;;;;;5032435;28;20520;-79
2023/06/19 07:04:09;;;;;;;10.25;7.95;;;512.50;2380.80;;;;;;5043965;28;20033;-82
2023/06/19 07:06:36;;;;;;;13.32;8.65;;;512.80;2380.80;;;;;;5052165;28;20077;-80
2023/06/19 07:09:02;;;;;;;13.38;8.98;;;537.70;2406.40;;;;;;5053631;28;20025;-79
2023/06/19 07:11:28;;;;;;;10.90;8.77;;;537.60;2406.40;;;;;;5053487;28;20513;-82
2023/06/19 07:13:53;;;;;;;12.52;7.97;;;537.60;2406.40;;;;;;5051510;28;20029;-82
2023/06/19 07:16:19;;;;;;;13.52;8.88;;;537.80;2406.40;;;;;;5052030;28;20037;-82
2023/06/19 07:18:45;;;;;;;10.20;8.63;;;538.00;2406.40;;;;;;5053651;28;20029;-82
2023/06/19 07:21:14;;;;;;;11.13;8.68;;;538.10;2406.40;;;;;;5052293;28;20028;-79
2023/06/19 07:23:42;;;;;;;14.68;9.38;;;538.30;2406.40;;;;;;5052371;28;20051;-80
2023/06/19 07:26:09;;;;;;;11.95;8.57;;;538.40;2406.40;;;;;;5053081;28;20071;-83
2023/06/19 07:28:38;;;;;;;9.60;8.30;;;563.20;2432.00;;;;;;5052250;28;20060;-80
2023/06/19 07:31:04;;;;;;;13.60;8.75;;;563.40;2432.00;;;;;;5053504;28;20039;-81
2023/06/19 07:33:29;;;;;;;10.95;7.93;;;563.60;2432.00;;;;;;5052029;28;20025;-81
2023/06/19 07:35:56;;;;;;;15.77;9.45;;;563.70;2432.00;;;;;;5052263;28;20112;-80
2023/06/19 07:38:22;;;;;;;15.48;8.88;;;563.90;2432.00;;;;;;5051926;28;20479;-82
2023/06/19 07:40:48;;;;;;;10.77;8.50;;;564.10;2432.00;;;;;;5052156;28;20029;-80
2023/06/19 07:43:14;;;;;;;10.50;8.52;;;588.80;2432.00;;;;;;5051624;28;20040;-83
2023/06/19 07:45:39;;;;;;;11.30;8.15;;;588.90;2432.00;;;;;;5051727;28;20025;-82
2023/06/19 07:48:05;;;;;;;10.85;9.52;;;589.00;2432.00;;;;;;5051894;28;20087;-84
2023/06/19 07:50:32;;;;;;;13.85;8.80;;;589.10;2432.00;;;;;;5053707;28;20078;-86
2023/06/19 07:52:58;;;;;;;9.60;8.23;;;589.20;2432.00;;;;;;5051867;28;20519;-83
2023/06/19 07:55:24;;;;;;;13.05;8.55;;;589.20;2432.00;;;;;;5052248;28;20056;-84
2023/06/19 07:57:49;;;;;;;11.48;8.90;;;589.20;2432.00;;;;;;5052029;28;20096;-82
2023/06/19 08:00:16;;;;;;;9.10;7.57;;;589.10;2432.00;;;;;;5051313;28;20025;-84
2023/06/19 08:02:42;;;;;;;12.43;7.68;;;589.30;2432.00;;;;;;5051877;28;20025;-82
2023/06/19 08:05:09;;;;;;;12.27;7.97;;;589.50;2432.00;;;;;;5051610;28;20078;-82
2023/06/19 08:07:35;;;;;;;9.77;8.15;;;589.50;2432.00;;;;;;5052626;28;20037;-82
2023/06/19 08:10:03;;;;;;;9.65;8.32;;;589.60;2432.00;;;;;;5051835;28;20033;-82
2023/06/19 08:12:30;;;;;;;10.13;8.55;;;614.40;2432.00;;;;;;5051872;28;20022;-82
2023/06/19 08:14:55;;;;;;;11.20;7.93;;;614.60;2432.00;;;;;;5052814;28;20452;-82
2023/06/19 08:17:21;;;;;;;11.10;8.02;;;614.70;2432.00;;;;;;5055468;28;20036;-82
2023/06/19 08:19:47;;;;;;;11.52;7.90;;;614.80;2432.00;;;;;;5056564;28;20469;-82
2023/06/19 08:22:14;;;;;;;14.02;10.60;;;;;;;;;;5054985;28;20033;-82
2023/06/19 08:24:40;;;;;;;9.40;7.47;;;615.10;2432.00;;;;;;5055354;28;20441;-83
2023/06/19 08:27:06;;;;;;;16.17;8.10;;;615.20;2432.00;;;;;;5055083;28;20037;-82
2023/06/19 08:29:33;;;;;;;11.27;7.63;;;615.30;2432.00;;;;;;5054922;28;20025;-82
2023/06/19 08:31:58;;;;;;;10.23;7.43;;;640.00;2432.00;;;;;;5055061;28;20028;-82
2023/06/19 08:34:24;;;;;;;11.70;6.60;;;640.10;2432.00;;;;;;5054212;28;20033;-82
2023/06/19 08:36:50;;;;;;;11.80;6.78;;;640.20;2432.00;;;;;;5054160;28;20441;-83
2023/06/19 08:39:16;;;;;;;8.30;6.65;;;640.40;2432.00;;;;;;5054530;28;20025;-82
2023/06/19 08:41:42;;;;;;;9.05;6.85;;;640.30;2432.00;;;;;;5054174;28;20025;-82
2023/06/19 08:44:09;;;;;;;9.20;6.43;;;640.50;2432.00;;;;;;5054734;28;20120;-83
2023/06/19 08:46:38;;;;;;;7.55;6.50;;;640.60;2432.00;;;;;;5055109;28;20116;-85
2023/06/19 08:49:06;;;;;;;8.70;6.93;;;640.70;2432.00;;;;;;5056358;28;20083;-82
2023/06/19 08:51:32;;;;;;;16.40;7.30;;;640.90;2432.00;;;;;;5055203;28;20392;-82
2023/06/19 08:54:05;;;;;;;9.70;7.20;;;665.70;2432.00;;;;;;5055964;28;20025;-83
2023/06/19 08:56:37;;;;;;;7.70;6.65;;;665.90;2432.00;;;;;;5056306;28;20033;-83
2023/06/19 08:59:14;;;;;;;8.90;6.30;;;666.00;2432.00;;;;;;5055298;28;20389;-82
2023/06/19 09:01:40;;;;;;;9.45;6.82;;;666.20;2432.00;;;;;;5054951;28;20033;-81
2023/06/19 09:04:13;;;;;;;8.85;6.28;;;666.00;2432.00;;;;;;5054651;28;20091;-82
2023/06/19 09:06:53;;;;;;;10.82;6.88;;;666.20;2432.00;;;;;;5054185;28;20045;-82
2023/06/19 09:09:20;;;;;;;8.40;5.70;;;;;;;;;;5054620;28;20028;-82
2023/06/19 09:12:17;;;;;;;8.85;6.60;;;691.20;2406.40;;;;;;5054662;28;20088;-82
2023/06/19 09:14:44;;;;;;;10.60;6.93;;;691.60;2406.40;;;;;;5033208;28;20045;-81
2023/06/19 09:17:12;;;;;;;9.57;7.43;;;691.70;2406.40;;;;;;5020769;28;20040;-80
2023/06/19 09:19:47;;;;;;;11.48;7.90;;;691.70;2355.20;;;;;;5034763;28;20425;-80
2023/06/19 09:22:12;;;;;;;8.23;6.28;;;691.80;2329.60;;;;;;5016910;28;20052;-81
2023/06/19 09:24:40;;;;;;;7.93;6.30;;;691.70;2227.20;;;;;;5015973;28;20485;-82
2023/06/19 09:27:13;;;;;;;7.93;6.60;;;691.80;2278.40;;;;;;5008867;28;20034;-81
2023/06/19 09:29:40;;;;;;;9.80;6.43;;;692.00;2252.80;;;;;;5011584;28;20171;-81
2023/06/19 09:32:17;;;;;;;9.13;6.32;;;691.90;2227.20;;;;;;5012989;28;20089;-81
2023/06/19 09:34:43;;;;;;;7.82;6.00;;;691.70;2227.20;;;;;;5033048;28;20113;-81
2023/06/19 09:37:10;;;;;;;9.98;6.22;;;691.20;2201.60;;;;;;5003171;28;20026;-81
2023/06/19 09:39:39;;;;;;;9.95;7.55;;;666.50;2227.20;;;;;;5002759;28;20029;-81
2023/06/19 09:42:09;;;;;;;8.25;6.55;;;666.30;2304.00;;;;;;5013277;28;20069;-82
2023/06/19 09:44:42;;;;;;;6.68;5.93;;;666.40;2304.00;;;;;;4996610;28;20038;-80
2023/06/19 09:47:20;;;;;;;6.75;5.85;;;691.20;2227.20;;;;;;4996960;28;20061;-83
2023/06/19 09:49:54;;;;;;;8.95;8.02;;;691.40;2176.00;;;;;;4996884;28;20026;-82
2023/06/19 09:52:22;;;;;;;10.50;7.75;;;691.70;2150.40;;;;;;5053968;28;20029;-82
2023/06/19 09:54:53;;;;;;;7.55;6.32;;;691.70;2150.40;;;;;;5055230;28;20032;-81
2023/06/19 09:57:18;;;;;;;12.68;8.82;;;691.90;2176.00;;;;;;5053872;28;20032;-82
2023/06/19 09:59:49;;;;;;;7.80;6.57;;;716.90;2201.60;;;;;;5053293;28;20073;-80
2023/06/19 10:02:17;;;;;;;6.78;5.53;;;717.10;2099.20;;;;;;5053993;28;20051;-79
2023/06/19 10:04:49;;;;;;;9.68;6.85;;;717.20;2099.20;;;;;;5055048;28;20527;-78
2023/06/19 10:07:20;;;;;;;7.25;6.05;;;717.10;2048.00;;;;;;5054299;28;20123;-77
2023/06/19 10:10:06;;;;;;;6.73;5.30;;;717.20;2073.60;;;;;;5054366;28;20052;-81
2023/06/19 10:12:44;;;;;;;9.50;5.68;;;716.90;2124.80;;;;;;5052286;28;20266;-81
2023/06/19 10:15:19;;;;;;;7.13;5.93;;;716.90;2073.60;;;;;;5035595;28;20037;-80
2023/06/19 10:17:53;;;;;;;10.30;5.63;;;717.10;2099.20;;;;;;5035621;28;20033;-82
2023/06/19 10:20:32;;;;;;;6.22;5.30;;;717.20;2022.40;;;;;;5035550;28;20028;-81
2023/06/19 10:23:04;;;;;;;6.70;5.22;;;716.80;2048.00;;;;;;5035718;28;20037;-81
2023/06/19 10:25:35;;;;;;;11.23;5.40;;;716.80;2073.60;;;;;;5052092;28;20033;-81
2023/06/19 10:28:02;;;;;;;9.70;5.67;;;716.80;2124.80;;;;;;5032402;28;20059;-79
2023/06/19 10:30:33;;;;;;;14.82;7.05;;;716.80;2150.40;;;;;;5035104;28;20163;-79
2023/06/19 10:32:59;;;;;;;9.60;5.40;;;716.80;2073.60;;;;;;5051477;28;20037;-83
2023/06/19 10:35:25;;;;;;;6.65;5.82;;;716.90;2124.80;;;;;;5051635;28;20036;-82
2023/06/19 10:37:51;;;;;;;9.90;5.88;;;692.10;2048.00;;;;;;5034246;28;20047;-79
2023/06/19 10:40:17;;;;;;;6.55;5.38;;;691.90;2022.40;;;;;;5035239;28;20029;-81
2023/06/19 10:42:44;;;;;;;13.45;10.88;;;717.10;2073.60;;;;;;5031975;28;20038;-81
2023/06/19 10:45:12;;;;;;;7.53;6.13;;;717.60;2073.60;;;;;;5037854;28;20024;-81
2023/06/19 10:47:40;;;;;;;9.05;5.53;;;742.40;1996.80;;;;;;5053686;28;20115;-80
2023/06/19 10:50:10;;;;;;;7.93;5.00;;;742.60;1894.40;;;;;;5052732;28;20033;-79
2023/06/19 10:52:36;;;;;;;10.70;9.60;;;742.90;1894.40;;;;;;5052132;28;20033;-80
2023/06/19 10:55:04;;;;;;;8.18;5.82;;;743.10;1920.00;;;;;;5053097;28;20036;-79
2023/06/19 10:57:31;;;;;;;11.93;10.68;;;768.00;1843.20;;;;;;5049238;28;20028;-80
2023/06/19 11:00:00;;;;;;;6.35;5.35;;;743.00;1894.40;;;;;;5052690;28;20096;-79
2023/06/19 11:02:26;;;;;;;9.50;6.35;;;742.90;1843.20;;;;;;5068903;28;20032;-80
2023/06/19 11:04:54;;;;;;;6.90;5.35;;;743.10;1894.40;;;;;;5052661;28;20029;-84
2023/06/19 11:07:20;;;;;;;7.72;5.93;;;768.00;1817.60;;;;;;5052308;28;20102;-85
2023/06/19 11:09:46;;;;;;;5.95;4.82;;;768.20;1792.00;;;;;;5052471;28;20025;-84
2023/06/19 11:12:12;;;;;;;6.47;5.07;;;768.30;1792.00;;;;;;5054007;28;20032;-81
2023/06/19 11:14:39;;;;;;;9.02;5.18;;;743.20;1817.60;;;;;;5052940;28;20074;-83
2023/06/19 11:17:06;;;;;;;10.50;5.68;;;768.10;1843.20;;;;;;5058229;28;20083;-82
2023/06/19 11:19:35;;;;;;;5.10;4.47;;;768.40;1817.60;;;;;;5059829;28;20025;-81
2023/06/19 11:22:03;;;;;;;7.38;5.60;;;768.30;1740.80;;;;;;5059607;28;20025;-82
2023/06/19 11:24:29;;;;;;;7.03;5.18;;;768.60;1817.60;;;;;;5060380;28;20444;-83
2023/06/19 11:26:58;;;;;;;9.52;6.15;;;768.40;1843.20;;;;;;5057564;28;20057;-84
2023/06/19 11:29:26;;;;;;;8.07;4.88;;;768.90;1792.00;;;;;;5052161;28;20108;-84
2023/06/19 11:32:04;;;;;;;5.10;4.60;;;793.70;1792.00;;;;;;5068269;28;20021;-85
2023/06/19 11:34:36;;;;;;;10.05;5.20;;;793.80;1740.80;;;;;;5053756;28;20033;-83
2023/06/19 11:37:11;;;;;;;9.77;5.53;;;794.00;1792.00;;;;;;5068492;28;20474;-83
2023/06/19 11:39:37;;;;;;;5.82;4.88;;;794.10;1766.40;;;;;;5052219;28;20025;-84
2023/06/19 11:42:03;;;;;;;6.82;5.13;;;794.20;1740.80;;;;;;5052364;28;20064;-83
2023/06/19 11:44:29;;;;;;;6.55;5.18;;;794.10;1792.00;;;;;;5051940;28;20029;-83
2023/06/19 11:47:02;;;;;;;6.22;4.88;;;794.10;1792.00;;;;;;5053417;28;20037;-83
2023/06/19 11:49:32;;;;;;;8.93;5.50;;;794.30;1740.80;;;;;;5055640;28;20166;-83
2023/06/19 11:51:58;;;;;;;8.40;4.97;;;794.50;1792.00;;;;;;5056005;28;20021;-84
2023/06/19 11:54:23;;;;;;;6.60;4.93;;;819.20;1766.40;;;;;;5055897;28;20025;-83
2023/06/19 11:56:49;;;;;;;6.68;5.10;;;819.30;1766.40;;;;;;5057246;28;20039;-84
2023/06/19 11:59:15;;;;;;;8.70;5.22;;;819.30;1766.40;;;;;;5055909;28;20033;-83
2023/06/19 12:01:41;;;;;;;8.20;4.88;;;794.50;1766.40;;;;;;5055897;28;20078;-83
2023/06/19 12:04:07;;;;;;;5.80;4.50;;;794.40;1715.20;;;;;;5055588;28;20025;-83
2023/06/19 12:06:35;;;;;;;7.82;5.00;;;794.20;1766.40;;;;;;5054901;28;20052;-82